sensor_id;sensor_type;location;lat;lon;timestamp;P1;durP1;ratioP1;P2;durP2;ratioP2
26319;SDS011;14024;52.226;5.200;2022-12-18T00:01:50;113.32;;;35.65;;
26319;SDS011;14024;52.226;5.200;2022-12-18T00:04:24;105.93;;;33.42;;
26319;SDS011;14024;52.226;5.200;2022-12-18T00:06:51;118.05;;;34.83;;
26319;SDS011;14024;52.226;5.200;2022-12-18T00:09:17;114.38;;;32.75;;
26319;SDS011;14024;52.226;5.200;2022-12-18T00:11:44;111.60;;;34.58;;
26319;SDS011;14024;52.226;5.200;2022-12-18T00:14:13;117.72;;;36.50;;
26319;SDS011;14024;52.226;5.200;2022-12-18T00:16:39;113.20;;;34.97;;
26319;SDS011;14024;52.226;5.200;2022-12-18T00:19:05;115.00;;;35.30;;
26319;SDS011;14024;52.226;5.200;2022-12-18T00:21:32;110.47;;;33.33;;
26319;SDS011;14024;52.226;5.200;2022-12-18T00:23:59;116.93;;;34.97;;
26319;SDS011;14024;52.226;5.200;2022-12-18T00:26:26;101.47;;;34.97;;
26319;SDS011;14024;52.226;5.200;2022-12-18T00:28:52;94.93;;;33.40;;
26319;SDS011;14024;52.226;5.200;2022-12-18T00:31:21;106.20;;;32.67;;
26319;SDS011;14024;52.226;5.200;2022-12-18T00:33:47;106.40;;;32.92;;
26319;SDS011;14024;52.226;5.200;2022-12-18T00:36:14;106.88;;;34.33;;
26319;SDS011;14024;52.226;5.200;2022-12-18T00:38:42;103.15;;;33.95;;
26319;SDS011;14024;52.226;5.200;2022-12-18T00:41:08;110.65;;;34.00;;
26319;SDS011;14024;52.226;5.200;2022-12-18T00:43:35;100.00;;;32.65;;
26319;SDS011;14024;52.226;5.200;2022-12-18T00:46:01;114.43;;;33.83;;
26319;SDS011;14024;52.226;5.200;2022-12-18T00:48:26;106.57;;;33.13;;
26319;SDS011;14024;52.226;5.200;2022-12-18T00:50:53;104.55;;;33.78;;
26319;SDS011;14024;52.226;5.200;2022-12-18T00:53:19;91.88;;;30.63;;
26319;SDS011;14024;52.226;5.200;2022-12-18T00:55:45;101.25;;;32.70;;
26319;SDS011;14024;52.226;5.200;2022-12-18T00:58:11;96.63;;;32.50;;
26319;SDS011;14024;52.226;5.200;2022-12-18T01:00:38;107.43;;;34.47;;
26319;SDS011;14024;52.226;5.200;2022-12-18T01:03:04;97.45;;;34.13;;
26319;SDS011;14024;52.226;5.200;2022-12-18T01:05:30;96.80;;;32.58;;
26319;SDS011;14024;52.226;5.200;2022-12-18T01:07:56;102.32;;;33.60;;
26319;SDS011;14024;52.226;5.200;2022-12-18T01:10:23;98.25;;;32.75;;
26319;SDS011;14024;52.226;5.200;2022-12-18T01:12:49;90.38;;;30.80;;
26319;SDS011;14024;52.226;5.200;2022-12-18T01:15:15;96.38;;;33.10;;
26319;SDS011;14024;52.226;5.200;2022-12-18T01:17:42;95.65;;;30.85;;
26319;SDS011;14024;52.226;5.200;2022-12-18T01:20:08;92.43;;;31.45;;
26319;SDS011;14024;52.226;5.200;2022-12-18T01:22:35;91.93;;;32.22;;
26319;SDS011;14024;52.226;5.200;2022-12-18T01:25:02;98.25;;;32.33;;
26319;SDS011;14024;52.226;5.200;2022-12-18T01:27:28;83.85;;;29.05;;
26319;SDS011;14024;52.226;5.200;2022-12-18T01:29:54;93.50;;;32.28;;
26319;SDS011;14024;52.226;5.200;2022-12-18T01:32:20;93.22;;;31.52;;
26319;SDS011;14024;52.226;5.200;2022-12-18T01:34:46;91.20;;;31.45;;
26319;SDS011;14024;52.226;5.200;2022-12-18T01:37:12;91.07;;;30.92;;
26319;SDS011;14024;52.226;5.200;2022-12-18T01:39:38;96.07;;;31.30;;
26319;SDS011;14024;52.226;5.200;2022-12-18T01:42:14;96.97;;;31.85;;
26319;SDS011;14024;52.226;5.200;2022-12-18T01:47:18;90.88;;;29.05;;
26319;SDS011;14024;52.226;5.200;2022-12-18T01:49:44;95.75;;;32.50;;
26319;SDS011;14024;52.226;5.200;2022-12-18T01:52:10;92.88;;;32.13;;
26319;SDS011;14024;52.226;5.200;2022-12-18T01:54:36;107.63;;;35.17;;
26319;SDS011;14024;52.226;5.200;2022-12-18T01:57:02;94.40;;;30.70;;
26319;SDS011;14024;52.226;5.200;2022-12-18T01:59:28;94.90;;;30.70;;
26319;SDS011;14024;52.226;5.200;2022-12-18T02:01:57;93.13;;;30.27;;
26319;SDS011;14024;52.226;5.200;2022-12-18T02:04:25;95.43;;;33.30;;
26319;SDS011;14024;52.226;5.200;2022-12-18T02:07:35;95.38;;;31.77;;
26319;SDS011;14024;52.226;5.200;2022-12-18T02:09:43;94.93;;;31.83;;
26319;SDS011;14024;52.226;5.200;2022-12-18T02:12:56;100.45;;;32.00;;
26319;SDS011;14024;52.226;5.200;2022-12-18T02:15:10;104.95;;;31.83;;
26319;SDS011;14024;52.226;5.200;2022-12-18T02:17:40;101.15;;;31.80;;
26319;SDS011;14024;52.226;5.200;2022-12-18T02:27:47;102.70;;;31.65;;
26319;SDS011;14024;52.226;5.200;2022-12-18T02:30:14;100.35;;;34.60;;
26319;SDS011;14024;52.226;5.200;2022-12-18T02:32:42;97.85;;;33.55;;
26319;SDS011;14024;52.226;5.200;2022-12-18T02:35:11;109.30;;;34.08;;
26319;SDS011;14024;52.226;5.200;2022-12-18T02:37:39;100.40;;;32.45;;
26319;SDS011;14024;52.226;5.200;2022-12-18T02:40:05;103.13;;;32.50;;
26319;SDS011;14024;52.226;5.200;2022-12-18T02:42:32;99.80;;;33.10;;
26319;SDS011;14024;52.226;5.200;2022-12-18T02:44:58;104.90;;;33.40;;
26319;SDS011;14024;52.226;5.200;2022-12-18T02:47:29;107.95;;;34.75;;
26319;SDS011;14024;52.226;5.200;2022-12-18T02:52:32;111.65;;;34.65;;
26319;SDS011;14024;52.226;5.200;2022-12-18T03:00:06;105.32;;;33.00;;
26319;SDS011;14024;52.226;5.200;2022-12-18T03:02:36;97.40;;;33.28;;
26319;SDS011;14024;52.226;5.200;2022-12-18T03:05:05;100.47;;;32.80;;
26319;SDS011;14024;52.226;5.200;2022-12-18T03:07:38;102.38;;;34.00;;
26319;SDS011;14024;52.226;5.200;2022-12-18T03:10:06;110.03;;;33.88;;
26319;SDS011;14024;52.226;5.200;2022-12-18T03:12:37;106.25;;;34.25;;
26319;SDS011;14024;52.226;5.200;2022-12-18T03:17:32;104.07;;;33.65;;
26319;SDS011;14024;52.226;5.200;2022-12-18T03:20:00;97.47;;;34.15;;
26319;SDS011;14024;52.226;5.200;2022-12-18T03:22:28;96.43;;;30.27;;
26319;SDS011;14024;52.226;5.200;2022-12-18T03:24:56;97.68;;;32.30;;
26319;SDS011;14024;52.226;5.200;2022-12-18T03:27:22;95.15;;;31.70;;
26319;SDS011;14024;52.226;5.200;2022-12-18T03:29:56;93.82;;;31.63;;
26319;SDS011;14024;52.226;5.200;2022-12-18T03:34:50;105.13;;;33.03;;
26319;SDS011;14024;52.226;5.200;2022-12-18T03:37:16;88.25;;;30.05;;
26319;SDS011;14024;52.226;5.200;2022-12-18T03:39:42;90.65;;;30.80;;
26319;SDS011;14024;52.226;5.200;2022-12-18T03:42:10;92.47;;;29.90;;
26319;SDS011;14024;52.226;5.200;2022-12-18T03:44:47;90.78;;;31.08;;
26319;SDS011;14024;52.226;5.200;2022-12-18T03:47:28;95.47;;;31.40;;
26319;SDS011;14024;52.226;5.200;2022-12-18T03:49:58;89.93;;;32.67;;
26319;SDS011;14024;52.226;5.200;2022-12-18T03:54:51;89.65;;;33.38;;
26319;SDS011;14024;52.226;5.200;2022-12-18T03:57:19;90.18;;;32.70;;
26319;SDS011;14024;52.226;5.200;2022-12-18T03:59:46;91.88;;;32.17;;
26319;SDS011;14024;52.226;5.200;2022-12-18T04:02:19;89.78;;;29.75;;
26319;SDS011;14024;52.226;5.200;2022-12-18T04:04:46;91.88;;;31.77;;
26319;SDS011;14024;52.226;5.200;2022-12-18T04:07:13;83.60;;;31.58;;
26319;SDS011;14024;52.226;5.200;2022-12-18T04:09:39;86.07;;;31.67;;
26319;SDS011;14024;52.226;5.200;2022-12-18T04:12:08;88.32;;;31.27;;
26319;SDS011;14024;52.226;5.200;2022-12-18T04:14:37;86.00;;;31.05;;
26319;SDS011;14024;52.226;5.200;2022-12-18T04:17:03;84.13;;;31.10;;
26319;SDS011;14024;52.226;5.200;2022-12-18T04:19:29;88.53;;;30.95;;
26319;SDS011;14024;52.226;5.200;2022-12-18T04:21:55;94.50;;;32.05;;
26319;SDS011;14024;52.226;5.200;2022-12-18T04:24:21;92.85;;;31.35;;
26319;SDS011;14024;52.226;5.200;2022-12-18T04:26:47;79.28;;;28.00;;
26319;SDS011;14024;52.226;5.200;2022-12-18T04:29:13;78.18;;;28.58;;
26319;SDS011;14024;52.226;5.200;2022-12-18T04:31:39;84.80;;;30.92;;
26319;SDS011;14024;52.226;5.200;2022-12-18T04:34:05;83.25;;;29.00;;
26319;SDS011;14024;52.226;5.200;2022-12-18T04:36:31;78.45;;;29.05;;
26319;SDS011;14024;52.226;5.200;2022-12-18T04:38:57;76.43;;;27.88;;
26319;SDS011;14024;52.226;5.200;2022-12-18T04:41:23;79.93;;;27.83;;
26319;SDS011;14024;52.226;5.200;2022-12-18T04:43:48;78.75;;;27.40;;
26319;SDS011;14024;52.226;5.200;2022-12-18T04:46:14;72.45;;;27.60;;
26319;SDS011;14024;52.226;5.200;2022-12-18T04:48:40;77.25;;;27.90;;
26319;SDS011;14024;52.226;5.200;2022-12-18T04:51:07;75.18;;;27.85;;
26319;SDS011;14024;52.226;5.200;2022-12-18T04:53:33;79.15;;;29.08;;
26319;SDS011;14024;52.226;5.200;2022-12-18T04:56:06;74.85;;;27.25;;
26319;SDS011;14024;52.226;5.200;2022-12-18T04:58:32;74.53;;;26.98;;
26319;SDS011;14024;52.226;5.200;2022-12-18T05:01:02;74.63;;;27.40;;
26319;SDS011;14024;52.226;5.200;2022-12-18T05:03:28;72.47;;;26.80;;
26319;SDS011;14024;52.226;5.200;2022-12-18T05:05:54;73.53;;;26.80;;
26319;SDS011;14024;52.226;5.200;2022-12-18T05:08:20;74.75;;;27.48;;
26319;SDS011;14024;52.226;5.200;2022-12-18T05:10:46;68.32;;;26.40;;
26319;SDS011;14024;52.226;5.200;2022-12-18T05:13:12;64.78;;;25.17;;
26319;SDS011;14024;52.226;5.200;2022-12-18T05:15:38;76.10;;;27.33;;
26319;SDS011;14024;52.226;5.200;2022-12-18T05:18:04;78.05;;;26.52;;
26319;SDS011;14024;52.226;5.200;2022-12-18T05:20:30;70.93;;;26.00;;
26319;SDS011;14024;52.226;5.200;2022-12-18T05:22:57;70.47;;;26.08;;
26319;SDS011;14024;52.226;5.200;2022-12-18T05:25:23;71.55;;;25.95;;
26319;SDS011;14024;52.226;5.200;2022-12-18T05:27:49;69.68;;;26.02;;
26319;SDS011;14024;52.226;5.200;2022-12-18T05:30:15;62.60;;;24.05;;
26319;SDS011;14024;52.226;5.200;2022-12-18T05:32:42;69.32;;;24.98;;
26319;SDS011;14024;52.226;5.200;2022-12-18T05:35:08;69.22;;;24.83;;
26319;SDS011;14024;52.226;5.200;2022-12-18T05:37:34;67.63;;;26.40;;
26319;SDS011;14024;52.226;5.200;2022-12-18T05:40:04;65.38;;;25.63;;
26319;SDS011;14024;52.226;5.200;2022-12-18T05:42:30;65.40;;;25.10;;
26319;SDS011;14024;52.226;5.200;2022-12-18T05:44:56;69.90;;;24.48;;
26319;SDS011;14024;52.226;5.200;2022-12-18T05:47:26;72.75;;;24.92;;
26319;SDS011;14024;52.226;5.200;2022-12-18T05:49:53;70.65;;;24.95;;
26319;SDS011;14024;52.226;5.200;2022-12-18T05:52:20;65.07;;;23.80;;
26319;SDS011;14024;52.226;5.200;2022-12-18T05:54:45;67.10;;;25.42;;
26319;SDS011;14024;52.226;5.200;2022-12-18T05:57:11;70.22;;;24.67;;
26319;SDS011;14024;52.226;5.200;2022-12-18T05:59:37;66.20;;;26.15;;
26319;SDS011;14024;52.226;5.200;2022-12-18T06:02:03;70.05;;;24.85;;
26319;SDS011;14024;52.226;5.200;2022-12-18T06:04:29;73.25;;;26.23;;
26319;SDS011;14024;52.226;5.200;2022-12-18T06:06:55;65.68;;;23.05;;
26319;SDS011;14024;52.226;5.200;2022-12-18T06:09:22;62.22;;;24.17;;
26319;SDS011;14024;52.226;5.200;2022-12-18T06:11:48;62.35;;;22.70;;
26319;SDS011;14024;52.226;5.200;2022-12-18T06:14:13;64.72;;;25.15;;
26319;SDS011;14024;52.226;5.200;2022-12-18T06:16:42;61.22;;;23.67;;
26319;SDS011;14024;52.226;5.200;2022-12-18T06:19:13;63.83;;;22.67;;
26319;SDS011;14024;52.226;5.200;2022-12-18T06:21:39;65.40;;;22.77;;
26319;SDS011;14024;52.226;5.200;2022-12-18T06:24:06;65.18;;;24.13;;
26319;SDS011;14024;52.226;5.200;2022-12-18T06:26:32;59.42;;;21.67;;
26319;SDS011;14024;52.226;5.200;2022-12-18T06:28:59;60.38;;;22.60;;
26319;SDS011;14024;52.226;5.200;2022-12-18T06:31:28;59.10;;;21.75;;
26319;SDS011;14024;52.226;5.200;2022-12-18T06:33:54;54.20;;;21.98;;
26319;SDS011;14024;52.226;5.200;2022-12-18T06:36:20;55.65;;;21.33;;
26319;SDS011;14024;52.226;5.200;2022-12-18T06:38:48;54.25;;;21.75;;
26319;SDS011;14024;52.226;5.200;2022-12-18T06:41:15;59.05;;;21.02;;
26319;SDS011;14024;52.226;5.200;2022-12-18T06:43:42;52.00;;;20.30;;
26319;SDS011;14024;52.226;5.200;2022-12-18T06:46:08;49.30;;;19.95;;
26319;SDS011;14024;52.226;5.200;2022-12-18T06:48:34;53.25;;;23.05;;
26319;SDS011;14024;52.226;5.200;2022-12-18T06:51:00;49.97;;;20.23;;
26319;SDS011;14024;52.226;5.200;2022-12-18T06:53:27;55.08;;;22.25;;
26319;SDS011;14024;52.226;5.200;2022-12-18T06:55:58;52.33;;;20.65;;
26319;SDS011;14024;52.226;5.200;2022-12-18T06:58:24;48.08;;;19.63;;
26319;SDS011;14024;52.226;5.200;2022-12-18T07:00:50;54.00;;;20.08;;
26319;SDS011;14024;52.226;5.200;2022-12-18T07:03:16;47.83;;;19.95;;
26319;SDS011;14024;52.226;5.200;2022-12-18T07:05:42;47.22;;;19.88;;
26319;SDS011;14024;52.226;5.200;2022-12-18T07:08:08;49.92;;;20.08;;
26319;SDS011;14024;52.226;5.200;2022-12-18T07:10:40;50.65;;;21.27;;
26319;SDS011;14024;52.226;5.200;2022-12-18T07:13:06;51.38;;;20.27;;
26319;SDS011;14024;52.226;5.200;2022-12-18T07:15:32;51.38;;;20.05;;
26319;SDS011;14024;52.226;5.200;2022-12-18T07:17:58;48.90;;;20.15;;
26319;SDS011;14024;52.226;5.200;2022-12-18T07:20:24;52.75;;;20.23;;
26319;SDS011;14024;52.226;5.200;2022-12-18T07:22:50;56.03;;;19.77;;
26319;SDS011;14024;52.226;5.200;2022-12-18T07:25:16;52.30;;;20.20;;
26319;SDS011;14024;52.226;5.200;2022-12-18T07:27:44;41.85;;;18.02;;
26319;SDS011;14024;52.226;5.200;2022-12-18T07:30:10;44.38;;;18.35;;
26319;SDS011;14024;52.226;5.200;2022-12-18T07:32:36;50.33;;;19.95;;
26319;SDS011;14024;52.226;5.200;2022-12-18T07:35:02;51.72;;;21.33;;
26319;SDS011;14024;52.226;5.200;2022-12-18T07:37:31;52.25;;;21.70;;
26319;SDS011;14024;52.226;5.200;2022-12-18T07:40:00;56.38;;;22.15;;
26319;SDS011;14024;52.226;5.200;2022-12-18T07:42:27;50.78;;;20.58;;
26319;SDS011;14024;52.226;5.200;2022-12-18T07:44:56;46.50;;;19.90;;
26319;SDS011;14024;52.226;5.200;2022-12-18T07:47:22;49.95;;;19.15;;
26319;SDS011;14024;52.226;5.200;2022-12-18T07:49:48;46.40;;;19.52;;
26319;SDS011;14024;52.226;5.200;2022-12-18T07:52:14;46.17;;;19.13;;
26319;SDS011;14024;52.226;5.200;2022-12-18T07:54:40;48.75;;;18.42;;
26319;SDS011;14024;52.226;5.200;2022-12-18T07:57:10;45.92;;;18.95;;
26319;SDS011;14024;52.226;5.200;2022-12-18T07:59:36;45.88;;;19.23;;
26319;SDS011;14024;52.226;5.200;2022-12-18T08:02:03;45.83;;;20.08;;
26319;SDS011;14024;52.226;5.200;2022-12-18T08:04:29;46.15;;;19.65;;
26319;SDS011;14024;52.226;5.200;2022-12-18T08:06:55;50.55;;;18.63;;
26319;SDS011;14024;52.226;5.200;2022-12-18T08:09:21;46.17;;;19.67;;
26319;SDS011;14024;52.226;5.200;2022-12-18T08:11:47;49.38;;;19.55;;
26319;SDS011;14024;52.226;5.200;2022-12-18T08:14:12;43.17;;;18.23;;
26319;SDS011;14024;52.226;5.200;2022-12-18T08:16:39;41.78;;;18.20;;
26319;SDS011;14024;52.226;5.200;2022-12-18T08:19:05;43.25;;;18.83;;
26319;SDS011;14024;52.226;5.200;2022-12-18T08:21:40;43.70;;;18.58;;
26319;SDS011;14024;52.226;5.200;2022-12-18T08:24:06;50.13;;;20.10;;
26319;SDS011;14024;52.226;5.200;2022-12-18T08:26:32;41.72;;;19.02;;
26319;SDS011;14024;52.226;5.200;2022-12-18T08:28:58;47.00;;;19.02;;
26319;SDS011;14024;52.226;5.200;2022-12-18T08:31:25;43.88;;;18.75;;
26319;SDS011;14024;52.226;5.200;2022-12-18T08:33:52;42.45;;;19.10;;
26319;SDS011;14024;52.226;5.200;2022-12-18T08:36:19;47.03;;;20.13;;
26319;SDS011;14024;52.226;5.200;2022-12-18T08:38:45;47.05;;;19.63;;
26319;SDS011;14024;52.226;5.200;2022-12-18T08:41:12;44.50;;;18.08;;
26319;SDS011;14024;52.226;5.200;2022-12-18T08:43:39;50.22;;;19.63;;
26319;SDS011;14024;52.226;5.200;2022-12-18T08:46:24;46.40;;;20.38;;
26319;SDS011;14024;52.226;5.200;2022-12-18T08:48:51;50.60;;;21.45;;
26319;SDS011;14024;52.226;5.200;2022-12-18T08:51:18;53.72;;;23.15;;
26319;SDS011;14024;52.226;5.200;2022-12-18T08:53:44;47.55;;;20.83;;
26319;SDS011;14024;52.226;5.200;2022-12-18T08:56:10;41.92;;;19.65;;
26319;SDS011;14024;52.226;5.200;2022-12-18T08:58:36;47.92;;;20.77;;
26319;SDS011;14024;52.226;5.200;2022-12-18T09:01:02;40.63;;;18.60;;
26319;SDS011;14024;52.226;5.200;2022-12-18T09:03:29;44.67;;;18.80;;
26319;SDS011;14024;52.226;5.200;2022-12-18T09:05:58;45.53;;;20.67;;
26319;SDS011;14024;52.226;5.200;2022-12-18T09:08:24;47.88;;;20.85;;
26319;SDS011;14024;52.226;5.200;2022-12-18T09:10:51;51.08;;;20.85;;
26319;SDS011;14024;52.226;5.200;2022-12-18T09:13:17;45.03;;;19.55;;
26319;SDS011;14024;52.226;5.200;2022-12-18T09:15:50;49.90;;;21.00;;
26319;SDS011;14024;52.226;5.200;2022-12-18T09:18:17;43.05;;;20.58;;
26319;SDS011;14024;52.226;5.200;2022-12-18T09:20:44;48.58;;;19.67;;
26319;SDS011;14024;52.226;5.200;2022-12-18T09:23:10;43.80;;;19.05;;
26319;SDS011;14024;52.226;5.200;2022-12-18T09:25:36;42.70;;;20.25;;
26319;SDS011;14024;52.226;5.200;2022-12-18T09:28:04;42.92;;;19.65;;
26319;SDS011;14024;52.226;5.200;2022-12-18T09:30:30;46.45;;;20.02;;
26319;SDS011;14024;52.226;5.200;2022-12-18T09:32:58;44.78;;;20.77;;
26319;SDS011;14024;52.226;5.200;2022-12-18T09:35:24;49.35;;;21.33;;
26319;SDS011;14024;52.226;5.200;2022-12-18T09:37:50;46.20;;;20.75;;
26319;SDS011;14024;52.226;5.200;2022-12-18T09:40:18;42.28;;;19.52;;
26319;SDS011;14024;52.226;5.200;2022-12-18T09:42:45;43.17;;;20.10;;
26319;SDS011;14024;52.226;5.200;2022-12-18T09:45:13;47.78;;;19.30;;
26319;SDS011;14024;52.226;5.200;2022-12-18T09:47:40;42.22;;;18.35;;
26319;SDS011;14024;52.226;5.200;2022-12-18T09:53:08;48.25;;;20.35;;
26319;SDS011;14024;52.226;5.200;2022-12-18T09:55:38;42.28;;;19.90;;
26319;SDS011;14024;52.226;5.200;2022-12-18T09:58:19;39.17;;;19.73;;
26319;SDS011;14024;52.226;5.200;2022-12-18T10:00:46;43.60;;;19.10;;
26319;SDS011;14024;52.226;5.200;2022-12-18T10:03:13;44.65;;;20.15;;
26319;SDS011;14024;52.226;5.200;2022-12-18T10:08:20;44.47;;;19.50;;
26319;SDS011;14024;52.226;5.200;2022-12-18T10:10:57;44.33;;;20.30;;
26319;SDS011;14024;52.226;5.200;2022-12-18T10:13:31;48.15;;;20.30;;
26319;SDS011;14024;52.226;5.200;2022-12-18T10:16:11;43.40;;;19.60;;
26319;SDS011;14024;52.226;5.200;2022-12-18T10:18:57;41.10;;;18.92;;
26319;SDS011;14024;52.226;5.200;2022-12-18T10:21:31;43.38;;;18.60;;
26319;SDS011;14024;52.226;5.200;2022-12-18T10:26:52;41.08;;;18.23;;
26319;SDS011;14024;52.226;5.200;2022-12-18T10:29:18;46.92;;;19.25;;
26319;SDS011;14024;52.226;5.200;2022-12-18T10:31:45;38.45;;;17.95;;
26319;SDS011;14024;52.226;5.200;2022-12-18T10:34:11;44.17;;;18.42;;
26319;SDS011;14024;52.226;5.200;2022-12-18T10:36:41;35.55;;;16.65;;
26319;SDS011;14024;52.226;5.200;2022-12-18T10:39:13;43.90;;;18.40;;
26319;SDS011;14024;52.226;5.200;2022-12-18T10:41:40;42.40;;;16.92;;
26319;SDS011;14024;52.226;5.200;2022-12-18T10:44:15;38.40;;;16.92;;
26319;SDS011;14024;52.226;5.200;2022-12-18T10:46:42;36.92;;;16.58;;
26319;SDS011;14024;52.226;5.200;2022-12-18T10:49:19;38.63;;;17.65;;
26319;SDS011;14024;52.226;5.200;2022-12-18T10:51:47;38.80;;;17.40;;
26319;SDS011;14024;52.226;5.200;2022-12-18T10:56:41;35.33;;;16.45;;
26319;SDS011;14024;52.226;5.200;2022-12-18T10:59:08;41.85;;;17.98;;
26319;SDS011;14024;52.226;5.200;2022-12-18T11:01:53;41.22;;;17.85;;
26319;SDS011;14024;52.226;5.200;2022-12-18T11:04:27;36.53;;;17.23;;
26319;SDS011;14024;52.226;5.200;2022-12-18T11:09:21;40.78;;;17.77;;
26319;SDS011;14024;52.226;5.200;2022-12-18T11:11:48;41.70;;;17.33;;
26319;SDS011;14024;52.226;5.200;2022-12-18T11:14:18;39.13;;;17.92;;
26319;SDS011;14024;52.226;5.200;2022-12-18T11:16:46;37.67;;;18.38;;
26319;SDS011;14024;52.226;5.200;2022-12-18T11:19:34;43.30;;;18.15;;
26319;SDS011;14024;52.226;5.200;2022-12-18T11:21:59;39.80;;;17.13;;
26319;SDS011;14024;52.226;5.200;2022-12-18T11:24:28;35.97;;;16.50;;
26319;SDS011;14024;52.226;5.200;2022-12-18T11:26:55;39.22;;;18.45;;
26319;SDS011;14024;52.226;5.200;2022-12-18T11:29:28;42.65;;;18.40;;
26319;SDS011;14024;52.226;5.200;2022-12-18T11:34:41;34.63;;;15.75;;
26319;SDS011;14024;52.226;5.200;2022-12-18T11:37:08;38.20;;;15.60;;
26319;SDS011;14024;52.226;5.200;2022-12-18T11:39:36;38.15;;;15.95;;
26319;SDS011;14024;52.226;5.200;2022-12-18T11:42:12;33.28;;;15.50;;
26319;SDS011;14024;52.226;5.200;2022-12-18T11:47:21;40.92;;;16.02;;
26319;SDS011;14024;52.226;5.200;2022-12-18T11:49:50;33.63;;;15.50;;
26319;SDS011;14024;52.226;5.200;2022-12-18T11:54:45;30.90;;;15.52;;
26319;SDS011;14024;52.226;5.200;2022-12-18T12:05:13;33.15;;;14.95;;
26319;SDS011;14024;52.226;5.200;2022-12-18T12:07:49;32.75;;;15.43;;
26319;SDS011;14024;52.226;5.200;2022-12-18T12:25:46;35.63;;;15.57;;
26319;SDS011;14024;52.226;5.200;2022-12-18T12:31:18;33.60;;;15.27;;
26319;SDS011;14024;52.226;5.200;2022-12-18T12:34:06;37.35;;;15.45;;
26319;SDS011;14024;52.226;5.200;2022-12-18T12:39:12;35.28;;;16.40;;
26319;SDS011;14024;52.226;5.200;2022-12-18T12:41:39;33.13;;;14.57;;
26319;SDS011;14024;52.226;5.200;2022-12-18T12:44:25;29.27;;;13.90;;
26319;SDS011;14024;52.226;5.200;2022-12-18T12:46:55;34.33;;;14.63;;
26319;SDS011;14024;52.226;5.200;2022-12-18T12:49:24;35.78;;;15.50;;
26319;SDS011;14024;52.226;5.200;2022-12-18T12:51:59;34.30;;;14.48;;
26319;SDS011;14024;52.226;5.200;2022-12-18T12:54:29;32.38;;;15.75;;
26319;SDS011;14024;52.226;5.200;2022-12-18T12:56:59;35.70;;;15.27;;
26319;SDS011;14024;52.226;5.200;2022-12-18T12:59:31;33.13;;;14.95;;
26319;SDS011;14024;52.226;5.200;2022-12-18T13:02:06;32.80;;;15.05;;
26319;SDS011;14024;52.226;5.200;2022-12-18T13:04:50;31.10;;;14.13;;
26319;SDS011;14024;52.226;5.200;2022-12-18T13:07:35;34.13;;;14.60;;
26319;SDS011;14024;52.226;5.200;2022-12-18T13:13:17;33.78;;;15.55;;
26319;SDS011;14024;52.226;5.200;2022-12-18T13:18:28;37.45;;;16.40;;
26319;SDS011;14024;52.226;5.200;2022-12-18T13:25:53;31.42;;;14.80;;
26319;SDS011;14024;52.226;5.200;2022-12-18T13:30:50;33.60;;;15.85;;
26319;SDS011;14024;52.226;5.200;2022-12-18T13:41:00;34.13;;;15.07;;
26319;SDS011;14024;52.226;5.200;2022-12-18T13:43:27;35.28;;;15.95;;
26319;SDS011;14024;52.226;5.200;2022-12-18T13:48:23;35.28;;;15.65;;
26319;SDS011;14024;52.226;5.200;2022-12-18T13:50:55;37.15;;;15.95;;
26319;SDS011;14024;52.226;5.200;2022-12-18T13:53:26;35.95;;;15.82;;
26319;SDS011;14024;52.226;5.200;2022-12-18T13:55:53;31.77;;;15.38;;
26319;SDS011;14024;52.226;5.200;2022-12-18T13:58:20;35.90;;;16.67;;
26319;SDS011;14024;52.226;5.200;2022-12-18T14:00:46;32.92;;;15.15;;
26319;SDS011;14024;52.226;5.200;2022-12-18T14:03:30;36.70;;;17.02;;
26319;SDS011;14024;52.226;5.200;2022-12-18T14:05:58;38.65;;;16.00;;
26319;SDS011;14024;52.226;5.200;2022-12-18T14:08:25;34.28;;;15.00;;
26319;SDS011;14024;52.226;5.200;2022-12-18T14:10:53;35.35;;;15.98;;
26319;SDS011;14024;52.226;5.200;2022-12-18T14:13:21;34.17;;;16.10;;
26319;SDS011;14024;52.226;5.200;2022-12-18T14:15:52;38.33;;;17.50;;
26319;SDS011;14024;52.226;5.200;2022-12-18T14:18:23;35.88;;;16.70;;
26319;SDS011;14024;52.226;5.200;2022-12-18T14:20:50;35.53;;;15.07;;
26319;SDS011;14024;52.226;5.200;2022-12-18T14:25:55;41.63;;;16.73;;
26319;SDS011;14024;52.226;5.200;2022-12-18T14:28:21;38.20;;;16.77;;
26319;SDS011;14024;52.226;5.200;2022-12-18T14:30:47;33.47;;;15.60;;
26319;SDS011;14024;52.226;5.200;2022-12-18T14:33:18;33.70;;;16.25;;
26319;SDS011;14024;52.226;5.200;2022-12-18T14:36:00;38.80;;;17.30;;
26319;SDS011;14024;52.226;5.200;2022-12-18T14:40:53;36.10;;;16.05;;
26319;SDS011;14024;52.226;5.200;2022-12-18T14:43:23;37.53;;;17.52;;
26319;SDS011;14024;52.226;5.200;2022-12-18T14:45:49;38.10;;;15.77;;
26319;SDS011;14024;52.226;5.200;2022-12-18T14:48:20;36.72;;;16.10;;
26319;SDS011;14024;52.226;5.200;2022-12-18T14:50:57;34.97;;;16.02;;
26319;SDS011;14024;52.226;5.200;2022-12-18T14:53:23;42.05;;;17.30;;
26319;SDS011;14024;52.226;5.200;2022-12-18T14:55:53;34.85;;;16.30;;
26319;SDS011;14024;52.226;5.200;2022-12-18T14:58:19;36.63;;;17.17;;
26319;SDS011;14024;52.226;5.200;2022-12-18T15:00:45;41.70;;;16.70;;
26319;SDS011;14024;52.226;5.200;2022-12-18T15:03:12;35.83;;;15.85;;
26319;SDS011;14024;52.226;5.200;2022-12-18T15:05:42;37.72;;;17.27;;
26319;SDS011;14024;52.226;5.200;2022-12-18T15:10:55;34.42;;;15.70;;
26319;SDS011;14024;52.226;5.200;2022-12-18T15:13:22;39.85;;;17.35;;
26319;SDS011;14024;52.226;5.200;2022-12-18T15:15:48;40.50;;;16.75;;
26319;SDS011;14024;52.226;5.200;2022-12-18T15:18:15;37.65;;;16.00;;
26319;SDS011;14024;52.226;5.200;2022-12-18T15:20:48;35.80;;;16.70;;
26319;SDS011;14024;52.226;5.200;2022-12-18T15:25:41;36.10;;;16.70;;
26319;SDS011;14024;52.226;5.200;2022-12-18T15:28:23;39.33;;;17.10;;
26319;SDS011;14024;52.226;5.200;2022-12-18T15:31:04;41.75;;;16.05;;
26319;SDS011;14024;52.226;5.200;2022-12-18T15:33:32;37.58;;;16.80;;
26319;SDS011;14024;52.226;5.200;2022-12-18T15:35:59;37.03;;;16.83;;
26319;SDS011;14024;52.226;5.200;2022-12-18T15:38:25;36.30;;;16.40;;
26319;SDS011;14024;52.226;5.200;2022-12-18T15:40:52;38.92;;;17.33;;
26319;SDS011;14024;52.226;5.200;2022-12-18T15:43:20;38.05;;;16.60;;
26319;SDS011;14024;52.226;5.200;2022-12-18T15:45:59;35.20;;;15.32;;
26319;SDS011;14024;52.226;5.200;2022-12-18T15:48:25;39.78;;;16.73;;
26319;SDS011;14024;52.226;5.200;2022-12-18T15:50:52;35.20;;;16.52;;
26319;SDS011;14024;52.226;5.200;2022-12-18T15:53:20;40.42;;;17.20;;
26319;SDS011;14024;52.226;5.200;2022-12-18T15:55:46;41.67;;;17.60;;
26319;SDS011;14024;52.226;5.200;2022-12-18T15:58:30;39.15;;;16.55;;
26319;SDS011;14024;52.226;5.200;2022-12-18T16:00:57;40.25;;;17.02;;
26319;SDS011;14024;52.226;5.200;2022-12-18T16:03:24;38.30;;;16.58;;
26319;SDS011;14024;52.226;5.200;2022-12-18T16:05:50;40.72;;;17.40;;
26319;SDS011;14024;52.226;5.200;2022-12-18T16:08:16;37.70;;;15.82;;
26319;SDS011;14024;52.226;5.200;2022-12-18T16:10:42;37.00;;;16.15;;
26319;SDS011;14024;52.226;5.200;2022-12-18T16:13:11;41.17;;;18.38;;
26319;SDS011;14024;52.226;5.200;2022-12-18T16:15:38;45.13;;;21.25;;
26319;SDS011;14024;52.226;5.200;2022-12-18T16:18:04;44.17;;;21.45;;